Latest Weather Observations for Swan Hill

IDV60801

Issued at 3:35 pm EST Thursday 24 April 2014 (issued every 30 minutes, with the page automatically refreshed every 10 minutes)

About weather observations | Map of weather stations | Latest weather observations for VIC | Other Formats
Station Details ID: 077094 Name: SWAN HILL AERODROME Lat: -35.38 Lon: 143.54 Height: 71.0 m
Data from the previous 72 hours. | See also: Recent months at Swan Hill
Date/Time
EST
Temp
°C
App
Temp
°C
Dew
Point
Rel
Hum
%
Delta-T
°C
Wind Press
QNH
hPa
Press
MSL
hPa
Rain
since 9 am
mm
Dir
 
Spd
km/h
Gust
km/h
Spd
kts
Gust
kts
24/03:30pm 20.9 16.8 4.5 34 8.0 SSW 15 30 8 16 1016.0 - 0.0
24/03:00pm 20.8 16.9 5.5 36 7.6 SSW 15 24 8 13 1015.9 1015.9 0.0
24/02:30pm 20.4 16.1 6.8 41 6.9 SSW 19 28 10 15 1016.0 - 0.0
24/02:00pm 20.9 17.8 9.0 46 6.3 S 15 24 8 13 1016.0 - 0.0
24/01:30pm 20.1 17.5 9.4 50 5.7 SSW 13 22 7 12 1016.2 - 0.0
24/01:00pm 19.6 16.2 9.2 51 5.5 S 17 28 9 15 1016.4 - 0.0
24/12:30pm 19.7 16.4 9.6 52 5.4 S 17 28 9 15 1016.6 - 0.0
24/12:00pm 18.8 14.9 9.5 54 4.9 S 20 30 11 16 1016.9 1016.9 0.0
24/11:30am 19.3 15.3 10.4 56 4.8 SW 22 30 12 16 1017.1 - 0.0
24/11:00am 18.7 14.4 10.8 60 4.3 WSW 24 35 13 19 1017.0 - 0.0
24/10:30am 18.8 14.7 10.2 57 4.6 WSW 22 30 12 16 1017.1 - 0.0
24/10:00am 17.7 13.9 9.7 59 4.2 WSW 20 26 11 14 1016.9 - 0.0
24/09:30am 16.1 11.8 9.4 64 3.5 WSW 22 28 12 15 1017.0 - 0.0
24/09:00am 15.0 10.4 8.0 63 3.5 WSW 22 28 12 15 1016.7 1016.7 0.0
24/08:30am 13.5 8.9 5.4 58 3.8 WSW 19 24 10 13 1016.5 - 0.0
24/08:00am 11.0 7.9 5.6 69 2.5 W 11 13 6 7 1015.9 - 0.0
24/07:30am 7.9 4.7 5.0 82 1.3 WNW 11 11 6 6 1015.5 - 0.0
24/07:00am 5.7 2.2 3.3 84 1.0 WNW 11 13 6 7 1015.2 - 0.0
24/06:30am 5.4 1.9 3.5 87 0.8 NW 11 11 6 6 1014.9 - 0.0
24/06:00am 5.4 2.3 3.7 89 0.7 NW 9 11 5 6 1014.8 1014.8 0.0
24/05:30am 6.0 3.1 4.4 89 0.7 NW 9 9 5 5 1014.5 - 0.0
24/05:00am 6.3 3.4 4.7 89 0.7 NW 9 9 5 5 1014.3 - 0.0
24/04:30am 6.3 3.3 4.2 86 0.9 NW 9 9 5 5 1014.0 - 0.0
24/04:00am 6.8 4.3 5.0 88 0.8 NW 7 9 4 5 1013.8 - 0.0
24/03:30am 7.3 4.5 5.0 85 1.0 NW 9 9 5 5 1013.8 - 0.0
24/03:00am 7.6 4.9 5.4 86 1.0 NW 9 9 5 5 1013.9 1013.8 0.0
24/02:30am 8.0 5.2 5.3 83 1.2 WSW 9 11 5 6 1013.9 - 0.0
24/02:00am 8.4 7.4 5.5 82 1.3 CALM 0 0 0 0 1014.0 - 0.0
24/01:30am 8.5 6.4 5.6 82 1.3 SSW 6 7 3 4 1014.0 - 0.0
24/01:00am 8.3 6.0 4.9 79 1.5 SSW 6 7 3 4 1013.8 - 0.0
24/12:30am 8.5 6.2 5.6 82 1.3 SSW 7 7 4 4 1013.9 - 0.0
24/12:00am 9.1 8.2 6.1 81 1.4 SSW 0 0 0 0 1013.9 1013.8 0.0
 
Date/Time
EST
Temp
°C
App
Temp
°C
Dew
Point
Rel
Hum
%
Delta-T
°C
Wind Press
QNH
hPa
Press
MSL
hPa
Rain
since 9 am
mm
Dir
 
Spd
km/h
Gust
km/h
Spd
kts
Gust
kts
23/11:30pm 9.1 8.1 5.8 80 1.5 CALM 0 0 0 0 1014.2 - 0.0
23/11:00pm 9.2 8.2 5.7 79 1.6 CALM 0 0 0 0 1014.5 - 0.0
23/10:30pm 10.2 9.2 5.6 73 2.1 CALM 0 0 0 0 1014.8 - 0.0
23/10:00pm 10.9 9.8 5.2 68 2.6 CALM 0 0 0 0 1014.8 - 0.0
23/09:30pm 10.9 9.3 4.7 65 2.8 SSW 2 7 1 4 1014.8 - 0.0
23/09:00pm 11.9 9.3 4.1 59 3.5 WNW 7 9 4 5 1014.8 1014.8 0.0
23/08:30pm 12.0 10.9 5.1 62 3.2 CALM 0 7 0 4 1014.7 - 0.0
23/08:00pm 12.8 10.6 5.3 60 3.5 WNW 6 7 3 4 1014.9 - 0.0
23/07:30pm 13.8 11.5 5.8 58 3.8 WNW 7 7 4 4 1014.8 - 0.0
23/07:00pm 13.9 11.2 5.4 56 4.0 WNW 9 9 5 5 1014.8 - 0.0
23/06:30pm 14.9 13.4 6.7 58 4.0 WNW 4 7 2 4 1014.4 - 0.0
23/06:00pm 16.6 15.5 5.1 46 5.5 CALM 0 0 0 0 1014.2 1014.1 0.0
23/05:30pm 18.6 16.4 5.5 42 6.4 WNW 6 7 3 4 1014.2 - 0.0
23/05:00pm 19.7 18.0 4.0 35 7.5 WNW 2 7 1 4 1014.3 - 0.0
23/04:30pm 20.3 18.1 3.5 33 8.0 WSW 4 11 2 6 1014.2 - 0.0
23/04:00pm 20.1 16.5 3.2 32 8.0 SSW 11 17 6 9 1014.3 - 0.0
23/03:30pm 20.4 17.6 3.3 32 8.1 WSW 7 13 4 7 1014.4 - 0.0
23/03:00pm 20.2 16.7 3.6 33 7.9 W 11 19 6 10 1014.5 1014.5 0.0
23/02:30pm 20.4 17.5 4.9 36 7.6 SSW 9 19 5 10 1014.7 - 0.0
23/02:00pm 21.0 17.2 3.7 32 8.3 W 13 20 7 11 1014.8 - 0.0
23/01:30pm 20.3 16.4 3.5 33 8.0 WSW 13 19 7 10 1015.2 - 0.0
23/01:00pm 19.9 16.6 4.7 36 7.4 WSW 11 20 6 11 1015.4 - 0.0
23/12:30pm 20.0 16.5 5.4 38 7.2 WSW 13 19 7 10 1015.8 - 0.0
23/12:00pm 19.6 16.7 6.4 42 6.6 SSW 11 20 6 11 1016.3 1016.3 0.0
23/11:30am 18.9 16.2 7.5 47 5.8 SSW 11 17 6 9 1016.6 - 0.0
23/11:00am 18.8 16.6 9.3 54 5.0 SSW 11 20 6 11 1017.0 - 0.0
23/10:30am 17.9 16.9 11.1 64 3.7 SE 7 13 4 7 1017.2 - 0.0
23/10:00am 16.8 15.3 10.6 67 3.3 SSE 9 13 5 7 1017.4 - 0.0
23/09:30am 15.5 13.8 10.0 70 2.9 SSE 9 13 5 7 1017.6 - 0.0
23/09:00am 14.2 12.5 10.0 76 2.2 SSE 9 13 5 7 1017.6 1017.6 0.0
23/08:30am 12.6 11.1 9.2 80 1.7 S 7 9 4 5 1017.3 - 0.0
23/08:00am 11.2 9.8 8.8 85 1.2 S 6 7 3 4 1017.1 - 0.0
23/07:30am 9.4 7.8 8.2 92 0.6 S 6 7 3 4 1016.8 - 0.0
23/07:00am 9.1 7.3 8.1 93 0.5 S 7 9 4 5 1016.6 - 0.0
23/06:30am 9.4 7.7 8.4 93 0.5 S 7 9 4 5 1016.5 - 0.0
23/06:00am 9.8 7.8 8.8 93 0.5 S 9 11 5 6 1016.5 1016.5 0.0
23/05:30am 10.2 8.7 9.2 93 0.5 S 7 9 4 5 1016.3 - 0.0
23/05:00am 10.6 9.2 9.4 92 0.6 S 7 11 4 6 1016.1 - 0.0
23/04:30am 11.0 9.7 9.8 92 0.6 S 7 9 4 5 1016.0 - 0.0
23/04:00am 11.5 10.2 9.9 90 0.8 S 7 11 4 6 1015.8 - 0.0
23/03:30am 11.7 10.1 10.3 91 0.7 S 9 13 5 7 1015.8 - 0.0
23/03:00am 11.9 10.4 10.7 92 0.6 SSW 9 11 5 6 1015.9 1015.9 0.0
23/02:30am 12.0 10.9 10.7 92 0.7 S 7 11 4 6 1015.8 - 0.0
23/02:00am 12.5 12.8 10.8 89 0.9 CALM 0 9 0 5 1016.1 - 0.0
23/01:30am 13.2 13.6 11.1 87 1.1 CALM 0 0 0 0 1016.2 - 0.0
23/01:00am 13.8 13.0 11.2 84 1.4 S 6 9 3 5 1016.4 - 0.0
23/12:30am 14.4 14.5 11.6 83 1.5 S 2 7 1 4 1016.3 - 0.0
23/12:00am 14.7 13.0 11.3 80 1.8 S 11 15 6 8 1015.9 1015.9 0.0
 
Date/Time
EST
Temp
°C
App
Temp
°C
Dew
Point
Rel
Hum
%
Delta-T
°C
Wind Press
QNH
hPa
Press
MSL
hPa
Rain
since 9 am
mm
Dir
 
Spd
km/h
Gust
km/h
Spd
kts
Gust
kts
22/11:30pm 15.2 13.8 10.9 75 2.3 S 9 13 5 7 1016.0 - 0.0
22/11:00pm 15.8 14.4 10.9 72 2.6 SSW 9 15 5 8 1016.1 - 0.0
22/10:30pm 16.1 14.3 10.9 71 2.8 SSW 11 19 6 10 1016.0 - 0.0
22/10:00pm 16.6 14.8 11.0 69 3.0 SSW 11 17 6 9 1016.0 - 0.0
22/09:30pm 16.7 14.6 11.3 70 2.9 SSW 13 20 7 11 1015.9 - 0.0
22/09:00pm 17.1 15.2 11.8 71 2.9 SW 13 17 7 9 1015.9 1015.9 0.0
22/08:30pm 17.3 15.9 12.2 72 2.8 SW 11 13 6 7 1016.3 - 0.0
22/08:00pm 17.7 15.1 12.1 69 3.1 WSW 17 20 9 11 1016.1 - 0.0
22/07:30pm 18.1 15.9 12.1 68 3.3 SW 15 20 8 11 1015.8 - 0.0
22/07:00pm 18.7 16.5 12.0 65 3.7 SW 15 20 8 11 1015.4 - 0.0
22/06:30pm 19.6 16.8 11.2 58 4.6 SW 17 22 9 12 1014.8 - 0.0
22/06:00pm 18.7 17.1 11.4 62 4.0 W 11 13 6 7 1014.2 1014.1 0.0
22/05:30pm 20.2 17.8 10.0 52 5.5 W 13 17 7 9 1014.0 - 0.0
22/05:00pm 21.2 18.3 9.7 47 6.2 W 15 19 8 10 1013.7 - 0.0
22/04:30pm 21.1 18.2 9.8 48 6.1 W 15 19 8 10 1013.7 - 0.0
22/04:00pm 21.3 18.1 10.1 48 6.1 WSW 17 22 9 12 1013.7 - 0.0
22/03:30pm 20.1 16.6 10.8 55 5.1 WSW 20 30 11 16 1014.0 - 0.0
22/03:00pm 20.6 19.0 10.1 51 5.7 SW 9 13 5 7 1013.4 1013.3 0.0
22/02:30pm 20.6 18.2 10.1 51 5.7 SW 13 17 7 9 1013.5 - 0.0
22/02:00pm 21.9 17.9 9.0 43 6.9 WSW 20 26 11 14 1013.3 - 0.0
22/01:30pm 22.8 18.6 8.3 39 7.7 WSW 20 28 11 15 1013.6 - 0.0
22/01:00pm 24.2 20.3 7.2 33 8.9 WNW 17 26 9 14 1013.4 - 0.0
22/12:30pm 21.5 18.0 10.1 48 6.2 NW 19 22 10 12 1014.0 - 0.0
22/12:00pm 22.7 19.0 8.1 39 7.7 NW 17 22 9 12 1014.2 1014.1 0.0
22/11:30am 21.1 17.7 7.8 42 6.9 NNW 15 20 8 11 1014.5 - 0.0
22/11:00am 19.6 15.5 7.7 46 6.1 N 19 24 10 13 1014.7 - 0.0
22/10:30am 18.3 14.7 8.4 52 5.1 NE 17 24 9 13 1014.9 - 0.0
22/10:00am 17.1 16.7 8.3 56 4.5 CALM 0 7 0 4 1016.2 - 0.0
22/09:30am 16.7 15.0 7.5 54 4.6 SSW 6 7 3 4 1016.4 - 0.0
22/09:00am 16.5 13.4 7.3 54 4.6 SSW 13 28 7 15 1016.2 1016.2 0.0
22/08:30am 16.5 13.2 6.5 51 4.9 N 13 19 7 10 1015.5 - 0.0
22/08:00am 16.8 15.1 7.4 54 4.7 NNE 6 9 3 5 1015.6 - 0.0
22/07:30am 15.4 12.5 6.6 55 4.3 NW 11 19 6 10 1015.5 - 0.0
22/07:00am 15.2 10.5 6.1 54 4.4 N 20 28 11 15 1015.2 - 0.0
22/06:30am 14.9 9.9 6.5 57 4.1 SW 22 30 12 16 1016.0 - 0.0
22/06:00am 14.0 10.4 6.6 61 3.6 N 15 19 8 10 1014.9 1014.9 0.0
22/05:30am 14.1 10.5 6.7 61 3.6 N 15 19 8 10 1014.6 - 0.0
22/05:00am 15.0 11.3 6.3 56 4.2 N 15 20 8 11 1014.3 - 0.0
22/04:30am 15.5 10.8 6.2 54 4.5 N 20 26 11 14 1014.2 - 0.0
22/04:00am 15.7 11.2 6.2 53 4.6 N 19 22 10 12 1014.0 - 0.0
22/03:30am 15.9 11.3 6.3 53 4.7 N 20 24 11 13 1014.1 - 0.0
22/03:00am 16.1 11.1 6.3 52 4.8 N 22 30 12 16 1014.2 1014.1 0.0
22/02:30am 16.0 11.4 6.4 53 4.7 N 20 28 11 15 1014.3 - 0.0
22/02:00am 16.0 11.0 6.4 53 4.7 N 22 28 12 15 1014.4 - 0.0
22/01:30am 16.1 11.5 6.3 52 4.8 N 20 32 11 17 1014.6 - 0.0
22/01:00am 16.8 12.1 6.2 49 5.2 N 20 28 11 15 1014.7 - 0.0
22/12:30am 17.0 12.3 5.9 48 5.4 N 20 26 11 14 1014.9 - 0.0
22/12:00am 17.1 12.4 6.1 48 5.4 N 20 26 11 14 1015.1 1015.1 0.0
 
Date/Time
EST
Temp
°C
App
Temp
°C
Dew
Point
Rel
Hum
%
Delta-T
°C
Wind Press
QNH
hPa
Press
MSL
hPa
Rain
since 9 am
mm
Dir
 
Spd
km/h
Gust
km/h
Spd
kts
Gust
kts
21/11:30pm 17.6 12.8 5.7 45 5.8 N 20 28 11 15 1015.2 - 0.0
21/11:00pm 18.2 13.0 5.5 43 6.2 N 22 30 12 16 1015.2 - 0.0
21/10:30pm 18.6 13.3 5.2 41 6.5 N 22 32 12 17 1015.4 - 0.0
21/10:00pm 18.7 14.1 5.4 41 6.5 NNE 19 26 10 14 1015.6 - 0.0
21/09:30pm 18.4 13.6 5.8 43 6.2 NNE 20 26 11 14 1015.8 - 0.0
21/09:00pm 18.8 14.2 5.5 41 6.5 NNE 19 24 10 13 1015.6 1015.6 0.0
21/08:30pm 19.0 14.2 5.6 41 6.6 NNE 20 26 11 14 1015.8 - 0.0
21/08:00pm 18.9 14.3 5.7 42 6.5 NNE 19 22 10 12 1016.0 - 0.0
21/07:30pm 18.7 14.9 5.9 43 6.3 NNE 15 20 8 11 1016.0 - 0.0
21/07:00pm 19.0 15.3 6.1 43 6.4 NNE 15 19 8 10 1015.9 - 0.0
21/06:30pm 20.1 15.9 5.5 38 7.2 NNE 17 20 9 11 1015.7 - 0.0
21/06:00pm 20.6 16.4 5.7 37 7.4 NNE 17 20 9 11 1015.6 1015.6 0.0
21/05:30pm 21.6 17.4 5.6 35 8.0 NNE 17 22 9 12 1015.5 - 0.0
21/05:00pm 22.1 17.4 5.2 33 8.4 NNE 19 26 10 14 1015.4 - 0.0
21/04:30pm 23.0 18.1 5.0 31 9.0 NNE 20 30 11 16 1015.5 - 0.0
21/04:00pm 22.8 17.4 4.6 30 9.0 NNE 22 30 12 16 1015.7 - 0.0

Other Formats:

Comma delimited format used in spreadsheet applications
http://www.bom.gov.au/fwo/IDV60801/IDV60801.94843.axf

JavaScript Object Notation format (JSON) in row-major order
http://www.bom.gov.au/fwo/IDV60801/IDV60801.94843.json